Time;durP1;ratioP1;P1;durP2;ratioP2;P2;SDS_P1;SDS_P2;PMS_P1;PMS_P2;Temp;Humidity;BMP_temperature;BMP_pressure;BME280_temperature;BME280_humidity;BME280_pressure;Samples;Min_cycle;Max_cycle;Signal;HPM_P1;HPM_P2
2023/01/13 00:00:47;;;;;;;9.88;1.88;;;;;;;7.97;100.00;100343.47;5026761;28;20150;-72
2023/01/13 00:03:12;;;;;;;16.02;2.30;;;;;;;7.96;100.00;100339.88;5040174;28;20035;-73
2023/01/13 00:05:37;;;;;;;16.20;3.03;;;;;;;7.94;100.00;100341.84;5029318;28;20399;-72
2023/01/13 00:08:05;;;;;;;13.98;2.67;;;;;;;7.89;100.00;100339.47;5028866;28;20416;-72
2023/01/13 00:10:31;;;;;;;17.70;2.70;;;;;;;7.85;100.00;100347.91;5028453;28;20481;-72
2023/01/13 00:12:57;;;;;;;15.73;3.22;;;;;;;7.80;100.00;100341.94;5027788;28;20033;-72
2023/01/13 00:15:22;;;;;;;13.95;3.15;;;;;;;7.77;100.00;100347.56;5029154;28;20392;-72
2023/01/13 00:17:47;;;;;;;24.20;2.45;;;;;;;7.71;100.00;100337.16;5029733;28;20022;-73
2023/01/13 00:20:13;;;;;;;14.43;2.20;;;;;;;7.68;100.00;100322.84;5047516;28;20047;-72
2023/01/13 00:22:38;;;;;;;12.43;2.03;;;;;;;7.63;100.00;100325.00;5048098;28;20021;-72
2023/01/13 00:25:05;;;;;;;12.77;2.38;;;;;;;7.60;100.00;100318.91;5044363;28;20550;-73
2023/01/13 00:27:31;;;;;;;12.98;2.55;;;;;;;7.56;100.00;100306.59;5027465;28;20048;-74
2023/01/13 00:29:56;;;;;;;16.40;2.50;;;;;;;7.54;100.00;100305.81;5028794;28;20037;-71
2023/01/13 00:32:21;;;;;;;21.08;3.63;;;;;;;7.51;100.00;100303.34;5015583;28;20083;-72
2023/01/13 00:34:47;;;;;;;18.42;2.53;;;;;;;7.45;100.00;100303.75;5028604;28;20496;-73
2023/01/13 00:37:13;;;;;;;11.65;2.20;;;;;;;7.39;100.00;100297.78;5028998;28;20041;-72
2023/01/13 00:39:39;;;;;;;11.75;2.10;;;;;;;7.31;100.00;100289.31;5027721;28;20468;-72
2023/01/13 00:44:50;;;;;;;13.68;2.67;;;;;;;7.22;100.00;100289.94;5048591;28;21461;-73
2023/01/13 00:47:15;;;;;;;21.40;3.95;;;;;;;7.22;100.00;100295.34;5031429;28;20075;-72
2023/01/13 00:49:40;;;;;;;17.25;4.38;;;;;;;7.21;100.00;100285.50;5050163;28;20040;-72
2023/01/13 00:52:06;;;;;;;31.15;5.25;;;;;;;7.22;100.00;100286.34;5035026;28;20024;-72
2023/01/13 00:54:31;;;;;;;22.02;3.53;;;;;;;7.22;100.00;100291.75;5052420;28;20488;-72
2023/01/13 00:56:56;;;;;;;16.10;2.90;;;;;;;7.21;100.00;100295.44;5032704;28;20022;-72
2023/01/13 00:59:22;;;;;;;20.55;2.80;;;;;;;7.16;100.00;100293.91;5031163;28;20101;-74
2023/01/13 01:01:47;;;;;;;19.73;4.00;;;;;;;7.15;100.00;100291.31;5050128;28;20075;-72
2023/01/13 01:04:13;;;;;;;13.48;2.58;;;;;;;7.13;100.00;100296.84;5037143;28;20469;-71
2023/01/13 01:06:38;;;;;;;20.27;3.10;;;;;;;7.12;100.00;100300.50;5048669;28;20033;-72
2023/01/13 01:09:04;;;;;;;24.55;3.17;;;;;;;7.13;100.00;100309.47;5050718;28;20036;-73
2023/01/13 01:11:31;;;;;;;19.92;2.88;;;;;;;7.12;100.00;100308.63;5036264;28;20037;-72
2023/01/13 01:13:59;;;;;;;14.20;2.80;;;;;;;7.10;100.00;100310.56;5014275;28;20094;-72
2023/01/13 01:16:26;;;;;;;21.10;3.22;;;;;;;7.12;100.00;100316.72;5031863;28;20664;-73
2023/01/13 01:18:53;;;;;;;20.52;3.15;;;;;;;7.18;100.00;100315.47;5030480;28;20516;-72
2023/01/13 01:21:20;;;;;;;15.00;2.50;;;;;;;7.18;100.00;100303.75;5030643;28;20071;-72
2023/01/13 01:23:45;;;;;;;31.05;4.30;;;;;;;7.23;100.00;100307.91;5014065;28;20563;-72
2023/01/13 01:26:20;;;;;;;16.45;3.03;;;;;;;7.27;100.00;100308.56;5030763;28;20033;-75
2023/01/13 01:28:45;;;;;;;18.08;3.67;;;;;;;7.30;100.00;100309.22;5031659;28;20112;-73
2023/01/13 01:31:20;;;;;;;19.83;3.10;;;;;;;7.34;100.00;100307.19;5030499;28;20606;-74
2023/01/13 01:33:49;;;;;;;20.77;3.13;;;;;;;7.36;100.00;100306.09;5038825;28;20041;-72
2023/01/13 01:36:16;;;;;;;17.60;2.90;;;;;;;7.34;100.00;100320.72;5031727;28;20037;-72
2023/01/13 01:38:43;;;;;;;19.23;3.83;;;;;;;7.31;100.00;100315.50;5031494;28;20104;-73
2023/01/13 01:41:13;;;;;;;11.35;2.50;;;;;;;7.28;100.00;100315.72;5030843;28;20077;-72
2023/01/13 01:44:04;;;;;;;19.60;2.70;;;;;;;7.26;100.00;100317.66;5031800;28;20068;-71
2023/01/13 01:46:39;;;;;;;11.52;2.25;;;;;;;7.22;100.00;100314.28;5046688;28;20110;-72
2023/01/13 01:49:19;;;;;;;22.73;3.35;;;;;;;7.18;100.00;100312.78;5037993;28;20457;-72
2023/01/13 01:51:57;;;;;;;21.73;2.85;;;;;;;7.14;100.00;100320.22;5030259;28;20045;-72
2023/01/13 01:54:28;;;;;;;15.80;2.53;;;;;;;7.10;100.00;100310.56;5030315;28;20227;-73
2023/01/13 01:56:54;;;;;;;25.83;4.35;;;;;;;7.07;100.00;100312.59;5029951;28;20527;-72
2023/01/13 01:59:20;;;;;;;21.45;3.72;;;;;;;7.02;99.80;100310.19;5029894;28;20022;-73
2023/01/13 02:01:47;;;;;;;15.27;2.75;;;;;;;6.99;99.53;100321.22;5031033;28;20048;-72
2023/01/13 02:04:24;;;;;;;17.35;3.70;;;;;;;6.97;98.74;100311.47;5029957;28;20110;-72
2023/01/13 02:06:51;;;;;;;16.30;3.72;;;;;;;6.95;98.32;100302.59;5031193;28;20472;-73
2023/01/13 02:09:17;;;;;;;29.73;4.22;;;;;;;6.90;97.90;100297.47;5045470;28;20039;-72
2023/01/13 02:14:29;;;;;;;28.40;4.90;;;;;;;6.88;97.31;100302.13;5031006;28;20379;-73
2023/01/13 02:17:20;;;;;;;29.98;3.47;;;;;;;6.84;96.86;100304.16;5047888;28;20063;-74
2023/01/13 02:20:07;;;;;;;22.05;4.35;;;;;;;6.82;96.48;100311.53;5031835;28;20385;-72
2023/01/13 02:23:03;;;;;;;26.85;4.85;;;;;;;6.79;97.11;100303.59;5029406;28;20052;-73
2023/01/13 02:25:59;;;;;;;26.60;4.47;;;;;;;6.75;96.93;100302.06;5029473;28;20026;-72
2023/01/13 02:31:40;;;;;;;21.13;4.20;;;;;;;6.73;96.29;100309.41;5031046;28;20048;-74
2023/01/13 02:31:41;;;;;;;25.48;3.50;;;;;;;6.72;95.86;100306.81;5045660;28;20438;-72
2023/01/13 02:34:21;;;;;;;23.75;3.10;;;;;;;6.70;96.55;100306.03;5036124;28;20072;-72
2023/01/13 02:36:59;;;;;;;25.42;4.30;;;;;;;6.68;96.81;100310.69;5029385;28;20033;-73
2023/01/13 02:39:36;;;;;;;22.40;4.03;;;;;;;6.64;97.37;100310.00;5030497;28;20037;-72
2023/01/13 02:45:17;;;;;;;17.70;3.85;;;;;;;6.63;97.97;100283.97;5030199;28;20164;-73
2023/01/13 02:47:46;;;;;;;23.27;3.78;;;;;;;6.66;98.01;100275.63;5030121;28;20049;-73
2023/01/13 02:50:16;;;;;;;29.45;3.72;;;;;;;6.67;98.41;100284.59;5029151;28;20033;-73
2023/01/13 02:52:49;;;;;;;13.95;3.10;;;;;;;6.65;98.54;100285.59;5030112;28;20038;-73
2023/01/13 02:55:19;;;;;;;27.30;3.75;;;;;;;6.68;98.71;100289.06;5029090;28;20037;-73
2023/01/13 02:57:46;;;;;;;23.55;3.63;;;;;;;6.68;98.65;100275.56;5030176;28;20033;-72
2023/01/13 03:00:15;;;;;;;19.90;3.78;;;;;;;6.70;98.83;100273.59;5029884;28;20530;-73
2023/01/13 03:02:40;;;;;;;21.48;3.97;;;;;;;6.68;99.46;100267.44;5028869;28;20034;-75
2023/01/13 03:05:06;;;;;;;20.25;3.50;;;;;;;6.71;98.97;100268.09;5030608;28;20029;-72
2023/01/13 03:08:06;;;;;;;21.92;3.85;;;;;;;6.79;98.61;100273.00;5028449;28;20033;-73
2023/01/13 03:10:48;;;;;;;24.23;3.28;;;;;;;6.83;98.56;100272.69;5029762;28;20493;-72
2023/01/13 03:13:16;;;;;;;19.02;3.38;;;;;;;6.89;98.98;100276.81;5028771;28;20400;-72
2023/01/13 03:15:50;;;;;;;13.77;2.42;;;;;;;6.92;98.52;100268.53;5028436;28;20071;-73
2023/01/13 03:18:31;;;;;;;18.65;3.05;;;;;;;6.95;98.56;100264.72;5029813;28;20035;-73
2023/01/13 03:21:11;;;;;;;15.98;3.50;;;;;;;6.95;98.22;100262.91;5011954;28;20041;-73
2023/01/13 03:23:46;;;;;;;20.52;4.20;;;;;;;6.97;98.29;100268.22;5028873;28;20064;-72
2023/01/13 03:26:31;;;;;;;13.02;3.03;;;;;;;7.02;97.56;100266.94;5028211;28;20464;-73
2023/01/13 03:29:10;;;;;;;19.50;3.80;;;;;;;7.03;97.06;100265.09;5029595;28;20041;-72
2023/01/13 03:31:45;;;;;;;17.02;3.60;;;;;;;7.09;96.65;100260.16;5030230;28;20048;-72
2023/01/13 03:34:19;;;;;;;23.63;3.95;;;;;;;7.11;96.41;100254.63;5034321;28;20389;-76
2023/01/13 03:36:49;;;;;;;14.73;3.17;;;;;;;7.12;95.87;100256.34;5029667;28;20033;-73
2023/01/13 03:39:21;;;;;;;12.43;2.05;;;;;;;7.16;94.82;100257.88;5028088;28;20040;-72
2023/01/13 03:42:02;;;;;;;9.93;2.65;;;;;;;7.17;94.10;100259.63;5044269;28;20051;-74
2023/01/13 03:44:37;;;;;;;12.02;1.77;;;;;;;7.20;92.50;100253.16;5048005;28;20443;-72
2023/01/13 03:47:13;;;;;;;11.50;1.80;;;;;;;7.21;92.38;100252.16;5028292;28;20041;-72
2023/01/13 03:49:53;;;;;;;11.10;1.30;;;;;;;7.20;91.06;100245.88;5028139;28;20046;-72
2023/01/13 03:52:31;;;;;;;7.10;1.73;;;;;;;7.17;89.57;100256.91;5028168;28;20060;-73
2023/01/13 03:55:06;;;;;;;6.15;1.30;;;;;;;7.19;88.73;100236.06;5027538;28;20037;-73
2023/01/13 03:57:37;;;;;;;6.97;1.33;;;;;;;7.19;88.85;100230.63;5011545;28;20033;-72
2023/01/13 04:00:05;;;;;;;4.30;1.00;;;;;;;7.18;88.61;100250.56;5028912;28;20434;-72
2023/01/13 04:02:48;;;;;;;6.60;1.17;;;;;;;7.18;88.39;100246.94;5029360;28;20029;-73
2023/01/13 04:05:16;;;;;;;4.55;0.90;;;;;;;7.14;89.44;100255.28;5029159;28;20044;-73
2023/01/13 04:08:01;;;;;;;5.30;1.00;;;;;;;7.13;89.61;100258.09;5040990;28;20025;-73
2023/01/13 04:10:32;;;;;;;3.78;0.93;;;;;;;7.09;88.70;100264.69;5044156;28;20037;-73
2023/01/13 04:13:06;;;;;;;6.80;1.20;;;;;;;7.02;89.78;100260.66;5011563;28;20079;-72
2023/01/13 04:15:38;;;;;;;6.78;1.30;;;;;;;7.04;89.58;100274.94;5028825;28;20034;-73
2023/01/13 04:18:29;;;;;;;5.18;1.02;;;;;;;7.00;90.97;100284.25;5033818;28;20025;-72
2023/01/13 04:20:56;;;;;;;9.75;1.45;;;;;;;6.93;91.39;100297.28;5050330;28;20048;-72
2023/01/13 04:23:23;;;;;;;4.03;1.00;;;;;;;6.89;91.86;100288.50;5033717;28;20037;-73
2023/01/13 04:25:49;;;;;;;4.15;0.90;;;;;;;6.86;92.63;100310.34;5031479;28;20128;-73
2023/01/13 04:28:15;;;;;;;7.43;1.40;;;;;;;6.82;93.66;100306.13;5031415;28;20492;-74
2023/01/13 04:30:41;;;;;;;9.32;1.15;;;;;;;6.84;94.40;100293.34;5033141;28;20041;-72
2023/01/13 04:33:07;;;;;;;11.95;1.52;;;;;;;6.83;94.82;100307.84;5040989;28;20026;-73
2023/01/13 04:35:34;;;;;;;11.55;2.25;;;;;;;6.82;95.03;100306.13;5032857;28;20451;-73
2023/01/13 04:38:01;;;;;;;10.05;1.98;;;;;;;6.84;95.14;100309.56;5032827;28;20061;-72
2023/01/13 04:40:27;;;;;;;12.77;2.15;;;;;;;6.83;96.01;100293.47;5032341;28;20064;-74
2023/01/13 04:42:52;;;;;;;8.15;1.63;;;;;;;6.80;96.45;100285.53;5033170;28;20079;-73
2023/01/13 04:45:17;;;;;;;13.35;2.00;;;;;;;6.74;97.05;100289.53;5035379;28;20025;-73
2023/01/13 04:47:43;;;;;;;10.77;1.95;;;;;;;6.78;97.18;100274.84;5032630;28;20041;-72
2023/01/13 04:50:09;;;;;;;11.18;1.95;;;;;;;6.75;97.83;100282.28;5031701;28;20045;-73
2023/01/13 04:52:34;;;;;;;9.52;1.67;;;;;;;6.70;97.89;100276.31;5032609;28;20211;-72
2023/01/13 04:55:00;;;;;;;9.38;2.40;;;;;;;6.67;98.66;100269.28;5032431;28;20393;-72
2023/01/13 04:57:25;;;;;;;9.05;2.03;;;;;;;6.67;98.59;100260.28;5032484;28;20037;-73
2023/01/13 04:59:50;;;;;;;8.65;2.30;;;;;;;6.67;98.90;100260.28;5014456;28;20033;-72
2023/01/13 05:02:18;;;;;;;11.07;2.85;;;;;;;6.63;99.05;100262.34;5031080;28;20073;-73
2023/01/13 05:04:47;;;;;;;13.23;2.45;;;;;;;6.57;99.30;100258.19;5049310;28;20079;-73
2023/01/13 05:07:14;;;;;;;9.55;2.17;;;;;;;6.56;99.64;100259.16;5039002;28;20088;-73
2023/01/13 05:09:39;;;;;;;11.10;3.25;;;;;;;6.54;99.43;100261.09;5014782;28;20061;-71
2023/01/13 05:17:33;;;;;;;13.07;2.47;;;;;;;6.48;100.00;100255.22;5031979;28;20381;-74
2023/01/13 05:19:58;;;;;;;9.70;2.95;;;;;;;6.47;100.00;100248.09;5031011;28;20239;-73
2023/01/13 05:25:21;;;;;;;12.00;2.70;;;;;;;6.44;99.78;100275.31;5032174;28;20090;-73
2023/01/13 05:27:50;;;;;;;10.10;2.30;;;;;;;6.45;100.00;100268.94;5013854;28;20034;-73
2023/01/13 05:30:16;;;;;;;8.57;2.50;;;;;;;6.41;99.78;100276.38;5030282;28;20061;-72
2023/01/13 05:32:42;;;;;;;13.25;2.20;;;;;;;6.38;100.00;100272.00;5037815;28;20061;-73
2023/01/13 05:35:07;;;;;;;18.63;3.78;;;;;;;6.37;99.77;100267.59;5034224;28;20569;-72
2023/01/13 05:37:33;;;;;;;7.93;1.83;;;;;;;6.36;99.96;100282.06;5051592;28;20439;-73
2023/01/13 05:45:26;;;;;;;13.10;2.05;;;;;;;6.41;98.84;100292.59;5031385;28;20091;-72
2023/01/13 05:47:52;;;;;;;9.00;2.45;;;;;;;6.39;98.95;100297.22;5031477;28;20572;-72
2023/01/13 05:50:17;;;;;;;15.90;2.13;;;;;;;6.38;99.08;100306.28;5030256;28;20026;-72
2023/01/13 05:52:43;;;;;;;10.68;2.63;;;;;;;6.36;98.93;100303.69;5031190;28;20183;-72
2023/01/13 05:55:09;;;;;;;13.13;2.10;;;;;;;6.34;98.58;100294.81;5031770;28;20041;-72
2023/01/13 05:57:34;;;;;;;19.08;2.90;;;;;;;6.30;98.43;100304.09;5031303;28;20128;-73
2023/01/13 06:00:00;;;;;;;7.32;2.25;;;;;;;6.28;98.44;100306.00;5029802;28;20220;-72
2023/01/13 06:02:25;;;;;;;11.55;2.83;;;;;;;6.26;98.37;100310.63;5031390;28;20034;-73
2023/01/13 06:04:51;;;;;;;12.68;2.58;;;;;;;6.21;98.71;100306.50;5013003;28;20045;-72
2023/01/13 06:07:16;;;;;;;12.98;2.22;;;;;;;6.24;98.62;100319.78;5031094;28;20040;-72
2023/01/13 06:09:42;;;;;;;9.00;2.25;;;;;;;6.22;98.25;100319.03;5029851;28;20052;-73
2023/01/13 06:12:10;;;;;;;11.93;2.33;;;;;;;6.23;98.07;100320.75;5030130;28;20061;-72
2023/01/13 06:14:38;;;;;;;11.32;3.60;;;;;;;6.20;97.65;100320.94;5031315;28;20037;-72
2023/01/13 06:17:13;;;;;;;9.23;2.13;;;;;;;6.19;97.72;100330.88;5030968;28;20037;-73
2023/01/13 06:19:38;;;;;;;10.90;2.50;;;;;;;6.19;97.12;100328.19;5031187;28;20037;-72
2023/01/13 06:22:25;;;;;;;11.30;2.08;;;;;;;6.20;97.34;100340.75;5030951;28;20481;-73
2023/01/13 06:24:52;;;;;;;11.77;2.05;;;;;;;6.17;97.06;100342.75;5013170;28;20107;-72
2023/01/13 06:27:19;;;;;;;9.82;2.50;;;;;;;6.17;96.99;100338.22;5033442;28;20017;-72
2023/01/13 06:29:45;;;;;;;11.00;2.08;;;;;;;6.14;97.41;100339.28;5049944;28;20090;-73
2023/01/13 06:32:17;;;;;;;11.75;2.30;;;;;;;6.17;97.58;100346.31;5037834;28;20029;-73
2023/01/13 06:34:48;;;;;;;10.32;2.05;;;;;;;6.16;97.29;100339.19;5032568;28;20156;-72
2023/01/13 06:37:18;;;;;;;19.52;2.30;;;;;;;6.13;97.08;100336.69;5029254;28;20049;-73
2023/01/13 06:39:44;;;;;;;8.70;1.98;;;;;;;6.11;96.69;100346.72;5030352;28;20098;-73
2023/01/13 06:44:54;;;;;;;12.90;2.40;;;;;;;6.06;97.34;100336.19;5048893;28;20503;-73
2023/01/13 06:47:21;;;;;;;13.27;2.80;;;;;;;6.07;97.26;100337.06;5030532;28;20037;-73
2023/01/13 06:49:46;;;;;;;9.90;2.72;;;;;;;6.04;96.92;100340.81;5030104;28;20065;-72
2023/01/13 06:52:12;;;;;;;15.43;2.90;;;;;;;6.03;97.13;100333.69;5028994;28;20128;-73
2023/01/13 06:54:37;;;;;;;19.92;3.22;;;;;;;6.01;96.70;100335.59;5013117;28;20095;-73
2023/01/13 06:57:02;;;;;;;15.43;3.00;;;;;;;6.03;96.93;100349.88;5012537;28;20507;-72
2023/01/13 06:59:28;;;;;;;19.20;2.00;;;;;;;6.02;97.00;100334.66;5028963;28;20540;-73
2023/01/13 07:01:53;;;;;;;15.88;2.70;;;;;;;6.07;96.47;100335.22;5028734;28;20079;-73
2023/01/13 07:04:19;;;;;;;15.65;3.15;;;;;;;6.06;96.35;100348.81;5028713;28;20473;-72
2023/01/13 07:06:44;;;;;;;12.38;2.35;;;;;;;6.11;96.11;100344.03;5030057;28;20104;-72
2023/01/13 07:09:10;;;;;;;17.05;2.55;;;;;;;6.17;95.83;100348.16;5030187;28;20117;-72
2023/01/13 07:11:35;;;;;;;12.45;2.78;;;;;;;6.22;95.79;100352.31;5029849;28;20060;-72
2023/01/13 07:16:44;;;;;;;14.30;3.00;;;;;;;6.22;94.64;100348.75;5044942;28;20041;-73
2023/01/13 07:19:09;;;;;;;9.98;1.98;;;;;;;6.22;94.45;100355.00;5035872;28;20083;-74
2023/01/13 07:21:35;;;;;;;13.18;2.00;;;;;;;6.22;94.29;100357.72;5029581;28;20167;-72
2023/01/13 07:24:00;;;;;;;14.52;2.50;;;;;;;6.21;93.71;100355.97;5029776;28;20048;-72
2023/01/13 07:26:26;;;;;;;15.70;2.22;;;;;;;6.19;93.72;100351.63;5029656;28;20037;-72
2023/01/13 07:28:51;;;;;;;14.57;3.75;;;;;;;6.20;93.67;100353.34;5029423;28;20539;-73
2023/01/13 07:31:22;;;;;;;13.35;2.15;;;;;;;6.18;93.79;100353.47;5028374;28;20038;-73
2023/01/13 07:33:47;;;;;;;11.65;2.42;;;;;;;6.11;93.51;100361.09;5029694;28;20045;-72
2023/01/13 07:36:14;;;;;;;10.45;2.25;;;;;;;6.13;93.42;100366.38;5029676;28;20485;-73
2023/01/13 07:38:40;;;;;;;12.77;3.13;;;;;;;6.12;93.23;100359.25;5028554;28;20040;-72
2023/01/13 07:43:50;;;;;;;12.50;2.90;;;;;;;6.14;93.18;100377.06;5049264;28;20488;-73
2023/01/13 07:46:16;;;;;;;17.10;2.88;;;;;;;6.11;93.29;100381.81;5036690;28;20033;-73
2023/01/13 07:48:41;;;;;;;12.98;2.28;;;;;;;6.06;93.32;100370.41;5029342;28;20032;-74
2023/01/13 07:51:10;;;;;;;16.08;3.42;;;;;;;6.10;92.85;100382.75;5029657;28;20041;-72
2023/01/13 07:53:35;;;;;;;11.63;2.60;;;;;;;6.09;92.79;100383.72;5012314;28;20045;-72
2023/01/13 07:56:03;;;;;;;22.05;2.85;;;;;;;6.13;92.27;100391.56;5040614;28;20565;-72
2023/01/13 07:58:29;;;;;;;19.30;2.78;;;;;;;6.17;92.39;100394.94;5027859;28;20030;-73
2023/01/13 08:00:55;;;;;;;18.15;2.97;;;;;;;6.14;93.04;100384.31;5029040;28;20144;-73
2023/01/13 08:03:21;;;;;;;12.57;2.58;;;;;;;6.12;93.12;100368.22;5029404;28;20033;-72
2023/01/13 08:05:47;;;;;;;14.70;2.13;;;;;;;6.17;93.15;100388.69;5029102;28;20037;-72
2023/01/13 08:08:12;;;;;;;15.70;2.70;;;;;;;6.14;92.91;100393.28;5029208;28;20017;-73
2023/01/13 08:10:38;;;;;;;17.02;2.70;;;;;;;6.16;93.12;100390.50;5027899;28;20048;-72
2023/01/13 08:13:18;;;;;;;15.20;2.75;;;;;;;6.20;92.71;100389.38;5029074;28;20480;-72
2023/01/13 08:15:46;;;;;;;17.38;2.97;;;;;;;6.21;92.50;100387.53;5028877;28;20041;-73
2023/01/13 08:18:12;;;;;;;16.17;2.50;;;;;;;6.24;92.39;100387.31;5029129;28;20030;-73
2023/01/13 08:20:37;;;;;;;21.60;3.13;;;;;;;6.28;92.25;100395.13;5029422;28;20030;-72
2023/01/13 08:23:03;;;;;;;15.07;3.88;;;;;;;6.29;92.47;100388.75;5011674;28;20033;-73
2023/01/13 08:25:29;;;;;;;14.20;2.83;;;;;;;6.33;91.89;100393.00;5011535;28;20040;-72
2023/01/13 08:27:55;;;;;;;12.05;2.00;;;;;;;6.34;92.55;100392.06;5028918;28;20033;-73
2023/01/13 08:30:21;;;;;;;13.40;2.97;;;;;;;6.31;92.70;100396.78;5027697;28;20103;-72
2023/01/13 08:32:48;;;;;;;15.32;2.90;;;;;;;6.33;93.36;100400.25;5028825;28;20037;-73
2023/01/13 08:35:14;;;;;;;13.45;2.30;;;;;;;6.33;93.08;100398.41;5027615;28;20037;-72
2023/01/13 08:37:40;;;;;;;11.15;2.80;;;;;;;6.35;93.06;100399.22;5029323;28;20120;-72
2023/01/13 08:40:07;;;;;;;18.70;2.58;;;;;;;6.39;93.38;100394.50;5027014;28;20124;-72
2023/01/13 08:42:32;;;;;;;26.42;3.15;;;;;;;6.44;93.05;100400.47;5043023;28;20283;-72
2023/01/13 08:44:58;;;;;;;14.60;3.78;;;;;;;6.51;92.90;100404.50;5028770;28;20424;-74
2023/01/13 08:47:25;;;;;;;13.90;2.65;;;;;;;6.55;93.65;100410.59;5048552;28;20116;-72
2023/01/13 08:49:50;;;;;;;10.25;2.90;;;;;;;6.55;93.34;100407.91;5047318;28;20502;-72
2023/01/13 08:52:16;;;;;;;18.02;3.20;;;;;;;6.62;93.63;100403.81;5047350;28;20040;-72
2023/01/13 08:54:41;;;;;;;21.05;3.83;;;;;;;6.70;92.50;100412.31;5037304;28;20025;-73
2023/01/13 08:57:06;;;;;;;22.60;3.95;;;;;;;6.77;92.58;100418.22;5028786;28;20500;-73
2023/01/13 08:59:32;;;;;;;17.08;2.90;;;;;;;6.84;92.00;100419.56;5028698;28;20516;-71
2023/01/13 09:01:58;;;;;;;15.77;2.78;;;;;;;6.88;91.77;100415.69;5045144;28;20343;-73
2023/01/13 09:04:26;;;;;;;14.20;3.00;;;;;;;6.92;91.73;100429.91;5050605;28;20037;-72
2023/01/13 09:06:53;;;;;;;29.30;2.78;;;;;;;6.98;91.42;100416.84;5048402;28;20097;-73
2023/01/13 09:09:19;;;;;;;16.65;4.00;;;;;;;7.07;90.85;100418.09;5051996;28;20060;-72
2023/01/13 09:14:33;;;;;;;20.98;3.17;;;;;;;7.31;90.70;100430.00;5032190;28;20045;-72
2023/01/13 09:16:59;;;;;;;16.90;3.15;;;;;;;7.40;89.98;100434.81;5030744;28;20037;-72
2023/01/13 09:19:25;;;;;;;18.15;4.60;;;;;;;7.53;89.03;100428.59;5030595;28;20037;-74
2023/01/13 09:21:51;;;;;;;18.65;4.10;;;;;;;7.62;88.20;100447.81;5047405;28;20025;-72
2023/01/13 09:24:17;;;;;;;19.45;2.85;;;;;;;7.77;88.49;100445.91;5030712;28;20053;-72
2023/01/13 09:26:43;;;;;;;22.50;3.65;;;;;;;7.84;87.72;100447.25;5030523;28;20444;-72
2023/01/13 09:29:08;;;;;;;17.92;2.60;;;;;;;7.85;87.72;100450.81;5014459;28;20021;-72
2023/01/13 09:31:34;;;;;;;21.13;2.88;;;;;;;7.87;86.02;100451.56;5030464;28;20049;-73
2023/01/13 09:36:48;;;;;;;20.33;3.20;;;;;;;7.79;86.13;100451.22;5047241;28;20069;-72
2023/01/13 09:39:14;;;;;;;15.13;2.80;;;;;;;7.76;87.21;100459.56;5030453;28;20044;-73
2023/01/13 09:44:43;;;;;;;14.88;3.38;;;;;;;7.70;87.08;100474.38;5030317;28;20493;-73
2023/01/13 09:47:19;;;;;;;29.73;4.07;;;;;;;7.64;88.44;100477.47;5031900;28;20048;-71
2023/01/13 09:49:44;;;;;;;14.13;2.53;;;;;;;7.57;88.78;100465.31;5031572;28;20040;-72
2023/01/13 09:52:22;;;;;;;19.88;5.90;;;;;;;7.48;89.14;100476.75;5030600;28;20033;-73
2023/01/13 09:55:01;;;;;;;13.15;3.67;;;;;;;7.42;90.17;100464.50;5031563;28;20095;-72
2023/01/13 09:57:31;;;;;;;26.60;3.45;;;;;;;7.40;89.91;100477.25;5029889;28;20045;-73
2023/01/13 09:59:57;;;;;;;15.07;2.65;;;;;;;7.43;90.21;100479.75;5029785;28;20466;-74
2023/01/13 10:02:55;;;;;;;19.65;2.78;;;;;;;7.45;89.15;100485.94;5031324;28;20029;-72
2023/01/13 10:05:44;;;;;;;14.00;3.53;;;;;;;7.49;88.77;100479.34;5018623;28;20512;-72
2023/01/13 10:08:32;;;;;;;23.30;3.78;;;;;;;7.45;89.19;100480.50;5031421;28;20293;-72
2023/01/13 10:13:51;;;;;;;16.65;2.83;;;;;;;7.54;90.03;100490.75;5050957;28;20044;-72
2023/01/13 10:16:52;;;;;;;25.90;3.67;;;;;;;7.60;90.49;100490.34;5029435;28;20037;-74
2023/01/13 10:19:24;;;;;;;16.90;3.60;;;;;;;7.58;89.77;100488.72;5029277;28;20456;-74
2023/01/13 10:22:14;;;;;;;15.35;2.80;;;;;;;7.54;91.35;100506.97;5030928;28;20431;-72
2023/01/13 10:25:19;;;;;;;23.35;4.05;;;;;;;7.50;92.11;100499.16;5030060;28;20366;-71
2023/01/13 10:27:48;;;;;;;18.80;3.47;;;;;;;7.41;93.57;100495.22;5024894;28;20503;-72
2023/01/13 10:30:18;;;;;;;17.85;3.33;;;;;;;7.39;94.18;100505.28;5012725;28;20519;-73
2023/01/13 10:32:56;;;;;;;16.98;3.92;;;;;;;7.37;94.84;100515.34;5041556;28;20040;-73
2023/01/13 10:35:50;;;;;;;23.20;4.07;;;;;;;7.33;94.88;100528.19;5049812;28;20037;-74
2023/01/13 10:38:19;;;;;;;15.82;3.55;;;;;;;7.30;94.98;100533.81;5030675;28;20072;-72
2023/01/13 10:40:56;;;;;;;12.15;3.95;;;;;;;7.26;96.05;100551.19;5030033;28;20083;-72
2023/01/13 10:43:23;;;;;;;20.88;4.13;;;;;;;7.22;96.34;100538.81;5029450;28;20037;-73
2023/01/13 10:46:03;;;;;;;18.15;4.57;;;;;;;7.16;96.32;100531.97;5030173;28;20043;-72
2023/01/13 10:48:34;;;;;;;17.20;3.92;;;;;;;7.14;97.05;100533.06;5030349;28;20095;-72
2023/01/13 10:51:16;;;;;;;20.15;4.20;;;;;;;7.12;97.60;100543.94;5030296;28;20033;-72
2023/01/13 10:53:50;;;;;;;18.20;3.17;;;;;;;7.13;96.52;100545.72;5028948;28;20034;-73
2023/01/13 10:56:18;;;;;;;21.70;3.20;;;;;;;7.13;97.24;100547.53;5029979;28;20042;-72
2023/01/13 10:58:43;;;;;;;24.85;4.45;;;;;;;7.14;97.59;100535.75;5030011;28;20037;-73
2023/01/13 11:01:18;;;;;;;18.63;4.20;;;;;;;7.17;96.77;100535.53;5030367;28;20025;-72
2023/01/13 11:03:46;;;;;;;16.80;3.38;;;;;;;7.14;96.58;100536.63;5028747;28;20492;-73
2023/01/13 11:06:23;;;;;;;16.20;3.17;;;;;;;7.21;97.68;100539.78;5029886;28;20052;-72
2023/01/13 11:08:51;;;;;;;23.98;4.45;;;;;;;7.24;96.75;100534.19;5028729;28;20108;-72
2023/01/13 11:11:42;;;;;;;23.80;5.20;;;;;;;7.29;96.42;100550.16;5012209;28;20045;-72
2023/01/13 11:14:35;;;;;;;21.92;3.53;;;;;;;7.27;95.79;100535.81;5028891;28;20536;-73
2023/01/13 11:17:08;;;;;;;;;;;;;;;7.29;96.08;100556.41;5028886;28;20542;-72
2023/01/13 11:19:40;;;;;;;22.60;3.42;;;;;;;7.27;95.30;100550.22;5029602;28;19917;-72
2023/01/13 11:22:15;;;;;;;12.90;2.72;;;;;;;7.32;95.36;100548.13;5029833;28;20488;-72
2023/01/13 11:24:58;;;;;;;21.00;3.63;;;;;;;7.33;93.75;100546.28;5029950;28;20492;-75
2023/01/13 11:27:37;;;;;;;17.80;3.05;;;;;;;7.32;94.03;100550.81;5027888;28;20036;-74
2023/01/13 11:30:09;;;;;;;18.52;2.65;;;;;;;7.32;93.37;100558.03;5029334;28;20373;-73
2023/01/13 11:32:42;;;;;;;12.70;2.78;;;;;;;7.34;93.56;100557.00;5036779;28;20063;-72
2023/01/13 11:35:17;;;;;;;22.35;3.45;;;;;;;7.39;93.42;100560.28;5028571;28;20404;-72
2023/01/13 11:37:49;;;;;;;14.10;2.65;;;;;;;7.46;93.50;100565.28;5028358;28;20049;-72
2023/01/13 11:40:26;;;;;;;19.27;3.13;;;;;;;7.51;92.37;100560.47;5028934;28;20053;-74
2023/01/13 11:43:09;;;;;;;18.83;3.53;;;;;;;7.54;92.55;100561.13;5029481;28;20038;-72
2023/01/13 11:45:43;;;;;;;24.10;3.65;;;;;;;7.57;91.25;100574.47;5031805;28;20476;-73
2023/01/13 11:48:14;;;;;;;21.02;3.67;;;;;;;7.59;92.02;100580.63;5012102;28;20037;-72
2023/01/13 11:50:47;;;;;;;15.40;3.83;;;;;;;7.60;91.38;100582.41;5028406;28;20076;-73
2023/01/13 11:53:51;;;;;;;13.15;2.78;;;;;;;7.61;92.88;100580.56;5045420;28;20523;-73
2023/01/13 11:56:28;;;;;;;19.40;3.35;;;;;;;7.61;92.41;100577.84;5036082;28;20404;-72
2023/01/13 11:59:31;;;;;;;19.35;3.25;;;;;;;7.63;91.52;100584.03;5027972;28;20029;-72
2023/01/13 12:02:22;;;;;;;12.10;2.92;;;;;;;7.63;92.56;100581.31;5044333;28;20040;-73
2023/01/13 12:05:23;;;;;;;16.55;2.80;;;;;;;7.62;92.02;100582.28;5049066;28;20388;-72
2023/01/13 12:08:02;;;;;;;18.50;3.13;;;;;;;7.59;92.33;100586.06;5010763;28;20607;-73
2023/01/13 12:10:43;;;;;;;13.48;2.90;;;;;;;7.60;91.94;100590.53;5040997;28;21430;-71
2023/01/13 12:13:25;;;;;;;11.18;2.95;;;;;;;7.60;91.88;100595.03;5027920;28;20509;-72
2023/01/13 12:15:56;;;;;;;19.67;3.10;;;;;;;7.60;90.53;100600.47;5034982;28;20041;-72
2023/01/13 12:18:36;;;;;;;18.58;3.72;;;;;;;7.60;90.49;100603.16;5047854;28;20041;-72
2023/01/13 12:21:11;;;;;;;20.63;2.97;;;;;;;7.57;89.42;100609.66;5048777;28;20531;-72
2023/01/13 12:23:45;;;;;;;16.13;3.42;;;;;;;7.58;89.79;100605.97;5043243;28;20124;-72